Date,TemperatureHighF,TemperatureAvgF,TemperatureLowF,DewpointHighF,DewpointAvgF,DewpointLowF,HumidityHigh,HumidityAvg,HumidityLow,PressureMaxIn,PressureMinIn,WindSpeedMaxMPH,WindSpeedAvgMPH,GustSpeedMaxMPH,PrecipitationSumIn
2012-1-1,53.0,45.3,36.0,45.0,35.2,23.0,97,70,48,0.00,40.00,19,7,35,0.00
2012-1-2,42.0,33.2,27.0,24.0,15.0,11.0,61,47,37,0.00,40.00,16,1,35,0.00
2012-1-3,27.0,22.8,12.0,19.0,8.4,-6.0,84,55,38,0.00,40.00,16,9,30,0.00
2012-1-4,27.0,19.6,10.0,13.0,5.4,-6.0,63,54,45,0.00,40.00,8,3,17,0.00
2012-1-5,47.0,35.0,24.0,24.0,16.7,-99.9,64,50,36,0.00,40.00,9,-11,17,0.00
2012-1-6,64.0,46.7,34.0,31.0,24.1,17.0,55,42,29,0.00,40.00,8,5,16,0.00
2012-1-7,65.0,49.1,39.0,40.0,25.9,-99.9,54,41,34,0.00,40.00,11,-2,22,0.00
2012-1-8,45.0,37.1,29.0,31.0,24.4,18.0,75,61,46,0.00,40.00,9,3,17,0.00
2012-1-9,38.0,32.0,27.0,32.0,24.7,19.0,99,75,54,0.00,40.00,11,-4,16,0.00
2012-1-10,54.0,38.0,27.0,36.0,27.0,22.0,99,70,34,0.00,40.00,10,-3,19,0.00
2012-1-11,42.0,35.0,25.0,41.0,31.3,-99.9,99,90,70,0.00,40.00,11,-10,17,0.88
2012-1-12,53.0,44.1,38.0,47.0,41.6,38.0,99,92,69,0.00,40.00,11,4,21,0.08
2012-1-13,45.0,30.3,25.0,44.0,15.5,7.0,99,56,41,0.00,40.00,17,10,37,0.04
2012-1-14,35.0,27.0,22.0,13.0,9.5,8.0,56,48,39,0.00,40.00,12,-1,21,0.00
2012-1-15,34.0,25.3,20.0,11.0,6.4,0.0,68,46,26,0.00,40.00,9,4,14,0.00
2012-1-16,38.0,28.8,16.0,33.0,16.0,8.0,86,60,43,0.00,40.00,17,7,24,0.20
2012-1-17,54.0,44.6,37.0,45.0,36.8,-99.9,97,76,56,0.00,40.00,13,-1,30,0.13
2012-1-18,50.0,33.0,21.0,35.0,16.3,-99.9,79,51,39,0.00,40.00,15,-6,34,0.00
2012-1-19,35.0,27.5,16.0,27.0,14.6,11.0,90,60,42,0.00,40.00,13,5,22,0.00
2012-1-20,35.0,26.7,19.0,28.0,11.1,5.0,94,53,38,0.00,40.00,9,4,18,0.04
2012-1-21,31.0,26.8,24.0,27.0,22.8,-99.9,99,90,79,0.00,40.00,9,-10,14,0.40
2012-1-22,33.0,26.7,22.0,27.0,21.7,18.0,98,82,58,0.00,40.00,6,3,10,0.00
2012-1-23,40.0,33.8,26.0,40.0,33.6,25.0,99,99,97,0.00,40.00,13,4,22,0.18
2012-1-24,54.0,42.0,33.0,40.0,30.0,-99.9,99,68,40,0.00,40.00,9,-10,21,0.00
2012-1-25,45.0,37.5,33.0,32.0,25.9,-99.9,83,66,48,0.00,40.00,10,-18,16,0.00
2012-1-26,40.0,36.3,35.0,39.0,32.6,-99.9,99,92,83,0.00,40.00,7,-24,10,0.35
2012-1-27,55.0,42.8,36.0,53.0,32.6,-99.9,99,74,47,0.00,40.00,18,-14,38,0.10
2012-1-28,50.0,38.9,31.0,29.0,22.3,8.0,72,53,32,0.00,40.00,14,6,30,0.00
2012-1-29,44.0,35.7,28.0,30.0,11.9,-99.9,87,39,29,0.00,40.00,16,0,28,0.00
2012-1-30,42.0,34.5,27.0,23.0,13.3,-99.9,69,43,31,0.00,40.00,13,-2,27,0.00
2012-1-31,67.0,50.2,34.0,30.0,20.8,-99.9,47,34,22,0.00,40.00,12,-16,20,0.00
2012-2-1,64.0,53.5,46.0,43.0,31.9,-99.9,81,48,33,0.00,40.00,9,-24,22,0.00
2012-2-2,49.0,41.9,37.0,43.0,29.1,-99.9,95,67,43,0.00,40.00,15,-22,30,0.00
2012-2-3,50.0,38.0,28.0,29.0,23.3,-99.9,84,58,39,0.00,40.00,11,-11,23,0.00
2012-2-4,42.0,32.5,29.0,35.0,26.6,-99.9,99,86,59,0.00,40.00,9,-40,12,0.15
2012-2-5,44.0,32.9,30.0,37.0,22.7,-99.9,99,80,50,0.00,40.00,4,-55,9,0.00
2012-2-6,53.0,36.8,26.0,31.0,25.8,19.0,99,70,28,0.00,40.00,7,-4,12,0.00
2012-2-7,53.0,39.9,32.0,29.0,23.5,-99.9,67,54,36,0.00,40.00,11,-3,20,0.00
2012-2-8,37.0,32.4,30.0,33.0,29.3,22.0,99,89,63,0.00,40.00,4,2,6,0.26
2012-2-9,46.0,33.7,22.0,31.0,18.7,11.0,99,59,30,0.00,40.00,7,-4,14,0.00
2012-2-10,41.0,33.1,26.0,33.0,22.7,14.0,99,68,44,0.00,40.00,9,3,17,0.01
2012-2-11,38.0,29.3,20.0,37.0,22.9,-99.9,99,81,47,0.00,40.00,17,-15,35,0.34
2012-2-12,29.0,23.4,19.0,9.0,6.9,4.0,58,49,40,0.00,40.00,16,3,32,0.00
2012-2-13,48.0,33.2,22.0,17.0,12.5,8.0,58,44,26,0.00,40.00,11,5,20,0.00
2012-2-14,49.0,39.4,33.0,33.0,21.4,-99.9,83,51,32,0.00,40.00,7,-4,12,0.00
2012-2-15,49.0,41.0,34.0,33.0,29.6,25.0,86,65,45,0.00,40.00,12,3,21,0.00
2012-2-16,44.0,38.6,33.0,43.0,36.3,-99.9,99,93,78,0.00,40.00,12,-4,22,0.18
2012-2-17,52.0,42.7,35.0,41.0,27.5,-99.9,99,61,29,0.00,40.00,10,-3,21,0.00
2012-2-18,60.0,41.4,29.0,29.0,23.4,17.0,79,52,27,0.00,40.00,12,5,27,0.00
2012-2-19,43.0,35.6,28.0,26.0,21.4,17.0,77,57,43,0.00,40.00,11,4,19,0.00
2012-2-20,47.0,36.3,27.0,21.0,18.5,15.0,70,50,32,0.00,40.00,11,5,17,0.00
2012-2-21,47.0,38.0,25.0,30.0,23.5,16.0,74,56,47,0.00,40.00,16,0,30,0.00
2012-2-22,59.0,49.5,38.0,38.0,30.3,-99.9,79,51,30,0.00,40.00,13,-2,24,0.00
2012-2-23,63.0,52.2,44.0,38.0,32.4,-99.9,73,50,29,0.00,40.00,11,-3,23,0.03
2012-2-24,51.0,43.5,36.0,46.0,37.0,-99.9,99,82,39,0.00,40.00,21,-1,44,0.14
2012-2-25,40.0,35.6,32.0,31.0,19.3,14.0,82,52,39,0.00,40.00,17,11,39,0.00
2012-2-26,48.0,37.5,31.0,21.0,17.2,15.0,55,44,31,0.00,40.00,11,-3,26,0.00
2012-2-27,66.0,47.4,28.0,31.0,22.9,15.0,64,40,27,0.00,40.00,13,6,36,0.00
2012-2-28,54.0,42.0,28.0,24.0,21.2,18.0,70,45,30,0.00,40.00,12,4,27,0.00
2012-2-29,42.0,40.5,38.0,41.0,34.7,20.0,99,83,45,0.00,40.00,12,3,18,1.14
2012-3-1,59.0,45.9,38.0,46.0,31.5,-99.9,99,65,33,0.00,40.00,13,-9,24,0.00
2012-3-2,50.0,40.3,31.0,44.0,29.2,-99.9,99,72,45,0.00,40.00,17,-21,25,0.11
2012-3-3,59.0,45.9,37.0,45.0,24.1,-99.9,99,55,20,0.00,40.00,17,-35,36,0.00
2012-3-4,44.0,35.6,30.0,24.0,16.1,-99.9,65,49,38,0.00,40.00,12,-29,27,0.00
2012-3-5,41.0,31.9,27.0,26.0,15.0,-99.9,72,55,41,0.00,40.00,13,-23,29,0.00
2012-3-6,47.0,34.8,21.0,21.0,14.9,-99.9,71,48,35,0.00,40.00,12,-16,19,0.00
2012-3-7,66.0,49.4,33.0,38.0,23.2,-99.9,57,40,28,0.00,40.00,14,-35,24,0.00
2012-3-8,69.0,59.6,49.0,50.0,42.6,-99.9,87,56,44,0.00,40.00,16,1,30,0.04
2012-3-9,53.0,43.5,33.0,43.0,23.6,13.0,81,47,31,0.00,40.00,17,8,35,0.00
2012-3-10,47.0,35.6,27.0,17.0,13.7,12.0,56,41,28,0.00,40.00,12,5,21,0.00
2012-3-11,64.0,47.3,30.0,31.0,21.9,-99.9,54,39,28,0.00,40.00,9,4,16,0.00
2012-3-12,69.0,55.4,41.0,38.0,31.4,-99.9,59,42,30,0.00,40.00,9,-4,14,0.00
2012-3-13,80.0,65.8,57.0,54.0,46.7,-99.9,81,53,34,0.00,40.00,12,-2,24,0.00
2012-3-14,80.0,66.3,53.0,45.0,41.4,35.0,62,43,26,0.00,40.00,10,4,17,0.00
2012-3-15,83.0,64.4,49.0,53.0,46.5,40.0,80,54,32,0.00,40.00,19,3,30,0.00
2012-3-16,70.0,57.5,48.0,55.0,50.0,-99.9,98,79,53,0.00,40.00,7,-4,14,0.00
2012-3-17,77.0,62.6,47.0,55.0,50.9,47.0,99,71,36,0.00,40.00,7,-4,13,0.00
2012-3-18,67.0,58.4,50.0,54.0,52.8,50.0,99,83,59,0.00,40.00,10,4,15,0.00
2012-3-19,72.0,61.8,54.0,62.0,56.2,53.0,99,84,52,0.00,40.00,9,3,14,1.41
2012-3-20,74.0,63.9,59.0,63.0,57.4,-99.9,99,83,53,0.00,40.00,5,2,9,0.13
2012-3-21,67.0,60.9,56.0,59.0,56.8,55.0,99,87,67,0.00,40.00,7,2,14,0.00
2012-3-22,78.0,66.0,58.0,62.0,57.5,-99.9,98,78,48,0.00,40.00,6,-5,9,0.00
2012-3-23,83.0,67.5,54.0,62.0,52.9,-99.9,99,67,31,0.00,40.00,6,-4,12,0.00
2012-3-24,69.0,58.1,49.0,60.0,53.9,-99.9,99,90,53,0.00,40.00,9,-10,16,0.37
2012-3-25,63.0,52.6,46.0,55.0,49.0,46.0,99,89,61,0.00,40.00,11,6,17,0.01
2012-3-26,59.0,50.1,36.0,51.0,28.0,7.0,79,45,28,0.00,40.00,17,9,33,0.00
2012-3-27,55.0,40.7,27.0,19.0,13.0,7.0,53,33,22,0.00,40.00,9,3,16,0.00
2012-3-28,74.0,58.3,42.0,58.0,35.3,15.0,92,43,29,0.00,40.00,11,5,27,0.00
2012-3-29,65.0,52.7,42.0,38.0,33.5,29.0,59,49,32,0.00,40.00,14,7,29,0.00
2012-3-30,53.0,43.9,34.0,38.0,32.8,28.0,86,66,50,0.00,40.00,9,-4,16,0.00
2012-3-31,53.0,47.1,43.0,49.0,44.6,38.0,99,92,72,0.00,40.00,11,5,17,0.04
2012-4-1,64.0,52.0,44.0,53.0,43.6,37.0,99,76,42,0.00,40.00,9,4,17,0.11
2012-4-2,61.0,50.5,44.0,53.0,30.8,21.0,99,51,26,0.00,40.00,17,6,28,0.11
2012-4-3,70.0,53.0,38.0,29.0,21.0,-99.9,41,30,20,0.00,40.00,7,-6,12,0.00
2012-4-4,76.0,59.5,51.0,46.0,34.4,-99.9,64,42,24,0.00,40.00,11,-3,23,0.00
2012-4-5,63.0,49.7,40.0,32.0,27.1,-99.9,54,43,31,0.00,40.00,7,-4,13,0.00
2012-4-6,60.0,47.3,33.0,27.0,22.9,17.0,61,40,24,0.00,40.00,14,6,24,0.00
2012-4-7,64.0,50.3,38.0,28.0,21.2,15.0,43,32,25,0.00,40.00,13,6,27,0.00
2012-4-8,72.0,53.8,38.0,36.0,26.0,-99.9,44,35,25,0.00,40.00,13,-2,29,0.00
2012-4-9,64.0,54.0,45.0,36.0,29.7,23.0,69,41,30,0.00,40.00,16,8,33,0.00
2012-4-10,61.0,47.2,37.0,37.0,29.0,21.0,94,54,27,0.00,40.00,13,-2,27,0.00
2012-4-11,51.0,39.9,32.0,38.0,31.1,25.0,97,72,42,0.00,40.00,14,4,32,0.01
2012-4-12,58.0,46.5,36.0,36.0,30.2,25.0,94,57,33,0.00,40.00,11,5,21,0.00
2012-4-13,66.0,51.6,36.0,34.0,28.6,-99.9,75,44,28,0.00,40.00,7,-5,12,0.00
2012-4-14,74.0,57.5,39.0,54.0,36.2,28.0,91,49,26,0.00,40.00,7,2,12,0.03
2012-4-15,80.0,65.2,55.0,57.0,51.7,-99.9,99,69,37,0.00,40.00,7,3,15,0.03
2012-4-16,86.0,74.0,60.0,59.0,54.4,48.0,85,53,34,0.00,40.00,13,6,22,0.00
2012-4-17,76.0,63.8,55.0,52.0,40.4,34.0,53,43,31,0.00,40.00,10,5,24,0.00
2012-4-18,55.0,51.7,49.0,50.0,41.2,-99.9,99,71,45,0.00,40.00,7,-5,13,0.06
2012-4-19,71.0,56.6,47.0,51.0,46.4,39.0,99,74,35,0.00,40.00,6,2,13,0.00
2012-4-20,71.0,59.3,47.0,50.0,46.5,-99.9,93,66,47,0.00,40.00,12,-3,22,0.00
2012-4-21,77.0,60.4,51.0,60.0,53.3,49.0,98,80,45,0.00,40.00,9,4,18,0.44
2012-4-22,51.0,46.9,39.0,51.0,44.2,-99.9,99,95,87,0.00,40.00,12,6,21,0.96
2012-4-23,45.0,39.7,36.0,40.0,36.4,32.0,99,89,65,0.00,40.00,11,6,26,0.50
2012-4-24,61.0,48.1,36.0,32.0,25.5,22.0,73,44,24,0.00,40.00,12,5,24,0.00
2012-4-25,70.0,53.6,38.0,36.0,30.1,26.0,81,45,24,0.00,40.00,11,4,24,0.00
2012-4-26,69.0,58.1,48.0,61.0,45.6,30.0,98,65,42,0.00,40.00,10,4,30,0.00
2012-4-27,57.0,49.6,43.0,44.0,28.9,22.0,69,46,31,0.00,40.00,14,7,29,0.00
2012-4-28,51.0,44.8,36.0,39.0,25.4,21.0,87,48,34,0.00,40.00,6,2,11,0.04
2012-4-29,70.0,52.4,36.0,47.0,33.0,-99.9,99,58,24,0.00,40.00,7,2,14,0.00
2012-4-30,60.0,52.9,40.0,50.0,32.9,21.0,71,48,26,0.00,40.00,11,5,17,0.00
2012-5-1,82.0,67.6,55.0,61.0,53.1,48.0,98,64,35,0.00,40.00,10,3,17,0.00
2012-5-2,81.0,66.5,57.0,63.0,59.2,53.0,99,79,51,0.00,40.00,7,3,12,0.58
2012-5-3,85.0,67.7,56.0,68.0,60.4,55.0,99,81,46,0.00,40.00,9,3,17,0.02
2012-5-4,84.0,72.6,64.0,69.0,61.6,53.0,98,72,37,0.00,40.00,7,3,19,0.00
2012-5-5,80.0,69.7,61.0,66.0,60.0,56.0,99,74,47,0.00,40.00,9,3,16,0.00
2012-5-6,71.0,64.8,62.0,62.0,58.6,-99.9,98,83,65,0.00,40.00,8,3,12,0.00
2012-5-7,66.0,62.4,59.0,58.0,53.9,41.0,95,75,49,0.00,40.00,13,7,23,0.00
2012-5-8,67.0,62.3,58.0,66.0,54.5,-99.9,98,80,44,0.00,40.00,12,0,22,0.26
2012-5-9,72.0,63.7,56.0,65.0,57.9,51.0,99,84,52,0.00,40.00,6,2,11,0.01
2012-5-10,65.0,56.2,49.0,56.0,39.4,29.0,99,57,36,0.00,40.00,12,6,34,0.00
2012-5-11,73.0,57.9,43.0,37.0,31.0,-99.9,63,39,26,0.00,40.00,9,-11,21,0.00
2012-5-12,77.0,62.7,46.0,45.0,40.4,35.0,81,47,28,0.00,40.00,8,3,14,0.00
2012-5-13,81.0,65.7,54.0,61.0,51.2,-99.9,97,65,34,0.00,40.00,6,2,12,0.00
2012-5-14,63.0,60.8,58.0,63.0,60.5,58.0,99,98,96,0.00,40.00,10,4,18,0.68
2012-5-15,78.0,68.0,62.0,67.0,61.3,57.0,99,81,51,0.00,40.00,6,2,12,0.10
2012-5-16,83.0,70.4,57.0,63.0,54.1,46.0,98,62,30,0.00,40.00,7,-4,14,0.00
2012-5-17,72.0,61.9,51.0,54.0,40.3,35.0,82,48,29,0.00,40.00,12,4,17,0.00
2012-5-18,77.0,61.8,45.0,47.0,40.7,-99.9,97,53,27,0.00,40.00,7,-11,13,0.00
2012-5-19,82.0,67.6,52.0,51.0,47.8,44.0,89,53,29,0.00,40.00,7,2,13,0.00
2012-5-20,83.0,69.3,55.0,57.0,49.5,-99.9,96,56,30,0.00,40.00,10,-3,19,0.00
2012-5-21,68.0,65.5,62.0,66.0,63.4,57.0,99,93,68,0.00,40.00,9,4,17,1.28
2012-5-22,79.0,67.9,61.0,66.0,60.2,-99.9,99,82,51,0.00,40.00,9,-12,24,0.06
2012-5-23,84.0,66.5,61.0,68.0,61.9,-99.9,99,89,45,0.00,40.00,9,-12,18,0.29
2012-5-24,81.0,71.2,64.0,70.0,62.5,56.0,98,78,43,0.00,40.00,12,-3,27,0.00
2012-5-25,85.0,74.0,66.0,69.0,62.9,-99.9,98,73,46,0.00,40.00,9,-10,14,0.00
2012-5-26,90.0,77.3,68.0,74.0,68.5,63.0,98,77,42,0.00,40.00,11,2,17,0.01
2012-5-27,87.0,74.9,65.0,74.0,66.0,-99.9,98,80,45,0.00,40.00,17,-4,32,1.75
2012-5-28,90.0,75.6,64.0,72.0,62.2,-99.9,98,69,46,0.00,40.00,11,-18,19,0.00
2012-5-29,90.0,76.2,68.0,72.0,68.5,65.0,98,80,47,0.00,40.00,9,4,18,0.55
2012-5-30,85.0,71.8,62.0,68.0,56.8,-99.9,98,65,34,0.00,40.00,9,-5,19,0.06
2012-5-31,79.0,69.3,60.0,60.0,48.6,-99.9,90,53,33,0.00,40.00,9,-18,16,0.00
2012-6-1,74.0,66.1,60.0,69.0,59.0,-99.9,99,80,55,0.00,40.00,12,-3,23,1.90
2012-6-2,73.0,62.6,52.0,60.0,47.2,41.0,99,62,34,0.00,40.00,9,3,20,0.00
2012-6-3,79.0,63.5,53.0,56.0,48.1,-99.9,90,62,35,0.00,40.00,12,4,29,0.00
2012-6-4,68.0,62.0,55.0,58.0,48.5,-99.9,98,66,44,0.00,40.00,11,-2,23,0.04
2012-6-5,67.0,59.2,54.0,55.0,47.4,40.0,97,68,42,0.00,40.00,6,3,12,0.00
2012-6-6,76.0,62.4,48.0,54.0,46.5,42.0,99,61,33,0.00,40.00,6,2,8,0.00
2012-6-7,78.0,64.4,54.0,62.0,53.2,49.0,97,70,38,0.00,40.00,7,-4,21,0.06
2012-6-8,83.0,68.6,54.0,56.0,50.9,-99.9,98,59,31,0.00,40.00,8,-4,19,0.01
2012-6-9,89.0,74.7,61.0,57.0,54.0,51.0,81,52,29,0.00,40.00,9,3,18,0.00
2012-6-10,90.0,76.8,61.0,60.0,56.4,-99.9,92,55,32,0.00,40.00,7,3,13,0.00
2012-6-11,85.0,75.0,64.0,64.0,59.3,-99.9,95,61,38,0.00,40.00,13,-3,24,0.00
2012-6-12,80.0,71.1,65.0,74.0,66.3,-99.9,99,87,66,0.00,40.00,10,-9,24,0.78
2012-6-13,77.0,68.8,61.0,65.0,51.9,44.0,98,60,35,0.00,40.00,11,6,22,0.00
2012-6-14,81.0,68.8,56.0,60.0,53.3,48.0,90,61,37,0.00,40.00,7,4,15,0.00
2012-6-15,81.0,70.0,60.0,64.0,52.5,-99.9,97,60,34,0.00,40.00,7,-12,14,0.00
2012-6-16,80.0,69.5,57.0,58.0,53.1,49.0,91,59,41,0.00,40.00,7,3,12,0.00
2012-6-17,78.0,68.1,58.0,54.0,51.7,-99.9,81,58,43,0.00,40.00,11,6,20,0.00
2012-6-18,67.0,63.7,61.0,64.0,58.3,-99.9,97,84,65,0.00,40.00,11,-1,19,0.00
2012-6-19,89.0,74.5,65.0,71.0,65.2,-99.9,99,77,49,0.00,40.00,5,-4,9,0.00
2012-6-20,95.0,82.8,71.0,72.0,66.3,-99.9,96,63,37,0.00,40.00,4,-5,12,0.00
2012-6-21,96.0,81.9,71.0,72.0,66.0,-99.9,97,64,37,0.00,40.00,7,-12,11,0.00
2012-6-22,93.0,78.2,72.0,72.0,63.0,-99.9,91,64,41,0.00,40.00,7,-18,19,0.00
2012-6-23,87.0,75.6,63.0,64.0,57.2,51.0,95,58,33,0.00,40.00,7,2,14,0.00
2012-6-24,87.0,75.2,61.0,63.0,56.9,-99.9,97,58,35,0.00,40.00,7,-5,12,0.00
2012-6-25,82.0,71.5,61.0,68.0,53.4,-99.9,97,59,30,0.00,40.00,13,-3,26,0.00
2012-6-26,78.0,65.7,53.0,48.0,44.2,37.0,75,47,33,0.00,40.00,11,4,27,0.00
2012-6-27,85.0,71.8,56.0,54.0,50.6,44.0,79,50,31,0.00,40.00,10,3,24,0.00
2012-6-28,93.0,78.1,62.0,62.0,57.5,54.0,86,53,30,0.00,40.00,8,4,16,0.00
2012-6-29,102.0,86.6,71.0,74.0,67.3,62.0,98,55,33,0.00,40.00,15,3,30,0.13
2012-6-30,90.0,80.0,67.0,71.0,64.7,60.0,98,63,41,0.00,40.00,7,2,12,0.00
2012-7-1,97.0,83.4,70.0,72.0,65.5,59.0,96,59,31,0.00,40.00,7,3,22,0.00
2012-7-2,92.0,79.9,69.0,70.0,59.7,-99.9,97,56,32,0.00,40.00,9,-4,18,0.13
2012-7-3,96.0,78.4,66.0,70.0,62.6,56.0,97,64,28,0.00,40.00,14,2,31,0.03
2012-7-4,96.0,79.9,67.0,69.0,65.0,-99.9,98,65,38,0.00,40.00,7,-4,20,0.04
2012-7-5,97.0,83.5,71.0,68.0,63.9,-99.9,83,54,38,0.00,40.00,7,-4,18,0.00
2012-7-6,98.0,85.6,72.0,72.0,67.6,63.0,92,58,34,0.00,40.00,6,2,12,0.00
2012-7-7,103.0,88.4,76.0,75.0,70.2,65.0,93,59,32,0.00,40.00,7,3,15,0.00
2012-7-8,93.0,83.2,77.0,80.0,73.8,69.0,97,75,49,0.00,40.00,6,2,12,0.00
2012-7-9,88.0,79.7,73.0,76.0,62.9,53.0,98,61,34,0.00,40.00,7,3,15,0.00
2012-7-10,92.0,78.7,68.0,68.0,61.0,53.0,97,59,28,0.00,40.00,10,-4,19,0.00
2012-7-11,86.0,74.7,67.0,71.0,64.3,-99.9,97,74,43,0.00,40.00,10,-4,18,0.00
2012-7-12,88.0,76.7,64.0,68.0,59.6,54.0,99,60,34,0.00,40.00,9,3,18,0.00
2012-7-13,87.0,75.8,69.0,67.0,59.8,56.0,93,59,41,0.00,40.00,6,2,10,0.00
2012-7-14,82.0,73.5,65.0,71.0,66.4,64.0,99,80,56,0.00,40.00,7,2,12,0.59
2012-7-15,95.0,77.9,71.0,74.0,70.1,65.0,98,80,39,0.00,40.00,11,3,19,0.07
2012-7-16,94.0,80.7,70.0,72.0,68.4,63.0,98,71,37,0.00,40.00,9,3,15,0.00
2012-7-17,99.0,83.3,68.0,71.0,64.9,-99.9,97,60,31,0.00,40.00,9,-11,19,0.00
2012-7-18,98.0,79.4,72.0,73.0,68.9,-99.9,98,74,41,0.00,40.00,21,-4,40,0.07
2012-7-19,93.0,78.5,71.0,72.0,68.5,65.0,98,76,41,0.00,40.00,11,2,24,0.24
2012-7-20,77.0,70.7,64.0,74.0,69.1,64.0,98,95,77,0.00,40.00,9,-4,17,0.03
2012-7-21,72.0,66.3,62.0,66.0,62.7,60.0,98,89,71,0.00,40.00,6,3,12,0.42
2012-7-22,82.0,71.6,66.0,69.0,64.1,-99.9,98,81,47,0.00,40.00,6,-12,11,0.00
2012-7-23,90.0,79.4,68.0,74.0,67.3,63.0,98,69,46,0.00,40.00,8,3,15,0.00
2012-7-24,92.0,80.3,72.0,73.0,68.5,59.0,93,69,49,0.00,40.00,10,4,19,0.01
2012-7-25,87.0,75.2,64.0,62.0,53.3,-99.9,79,51,31,0.00,40.00,6,-11,11,0.00
2012-7-26,98.0,78.8,69.0,74.0,66.3,56.0,96,69,37,0.00,40.00,14,4,25,0.20
2012-7-27,89.0,79.5,72.0,72.0,69.3,66.0,95,73,49,0.00,40.00,7,3,13,0.00
2012-7-28,89.0,76.1,69.0,72.0,68.1,62.0,98,79,42,0.00,40.00,7,2,16,0.00
2012-7-29,87.0,77.6,65.0,69.0,61.6,58.0,98,61,39,0.00,40.00,7,3,14,0.00
2012-7-30,93.0,75.3,63.0,67.0,62.7,-99.9,98,69,36,0.00,40.00,9,-4,17,0.00
2012-7-31,87.0,75.6,68.0,73.0,66.5,-99.9,99,78,46,0.00,40.00,11,-4,30,0.07
2012-8-1,89.0,74.1,65.0,69.0,65.2,60.0,99,77,44,0.00,40.00,7,2,24,0.00
2012-8-2,93.0,79.0,67.0,70.0,65.1,60.0,98,67,35,0.00,40.00,6,2,10,0.00
2012-8-3,91.0,79.8,70.0,72.0,67.6,-99.9,97,70,44,0.00,40.00,9,-4,16,0.00
2012-8-4,92.0,82.4,72.0,75.0,68.7,64.0,97,66,41,0.00,40.00,12,5,24,0.00
2012-8-5,90.0,79.2,74.0,77.0,71.0,67.0,97,77,50,0.00,40.00,11,4,29,0.04
2012-8-6,92.0,79.7,71.0,74.0,65.8,56.0,98,68,31,0.00,40.00,6,2,12,0.00
2012-8-7,88.0,76.3,66.0,67.0,62.1,57.0,96,66,36,0.00,40.00,6,2,9,0.00
2012-8-8,94.0,79.2,67.0,70.0,61.6,-99.9,98,62,26,0.00,40.00,8,-5,14,0.00
2012-8-9,92.0,75.8,67.0,71.0,65.9,57.0,98,75,37,0.00,40.00,15,4,37,0.00
2012-8-10,85.0,71.2,67.0,71.0,67.1,64.0,99,89,53,0.00,40.00,9,3,29,3.45
2012-8-11,86.0,73.9,67.0,70.0,59.0,-99.9,98,66,36,0.00,40.00,7,2,20,0.00
2012-8-12,84.0,72.3,63.0,61.0,57.2,54.0,83,61,41,0.00,40.00,7,2,12,0.00
2012-8-13,87.0,72.6,61.0,63.0,56.9,-99.9,95,63,34,0.00,40.00,4,-6,11,0.00
2012-8-14,86.0,73.2,66.0,71.0,62.8,-99.9,98,75,43,0.00,40.00,4,-12,11,0.25
2012-8-15,82.0,72.2,65.0,72.0,63.9,58.0,99,78,47,0.00,40.00,6,2,11,0.00
2012-8-16,87.0,74.4,61.0,65.0,59.1,54.0,98,64,36,0.00,40.00,5,2,11,0.00
2012-8-17,88.0,71.6,65.0,68.0,63.0,-99.9,98,79,39,0.00,40.00,9,-4,19,1.92
2012-8-18,82.0,70.7,63.0,68.0,54.9,-99.9,98,64,32,0.00,40.00,7,-4,12,0.00
2012-8-19,71.0,63.9,58.0,64.0,59.9,56.0,97,87,69,0.00,40.00,6,2,12,1.53
2012-8-20,76.0,66.3,62.0,66.0,61.8,58.0,98,87,54,0.00,40.00,8,2,18,0.68
2012-8-21,83.0,68.9,60.0,67.0,58.5,48.0,99,75,34,0.00,40.00,5,2,9,0.00
2012-8-22,87.0,71.6,60.0,63.0,56.5,-99.9,97,64,35,0.00,40.00,6,-12,10,0.00
2012-8-23,88.0,73.3,61.0,66.0,58.2,-99.9,98,65,30,0.00,40.00,4,-6,9,0.00
2012-8-24,87.0,73.0,63.0,67.0,62.5,-99.9,98,74,39,0.00,40.00,9,-6,16,0.00
2012-8-25,82.0,73.3,67.0,69.0,61.8,51.0,98,70,35,0.00,40.00,9,3,14,0.00
2012-8-26,77.0,71.4,66.0,72.0,67.7,64.0,99,88,66,0.00,40.00,9,4,20,0.28
2012-8-27,87.0,76.4,69.0,68.0,65.9,61.0,97,73,45,0.00,40.00,7,-3,13,0.00
2012-8-28,87.0,76.8,69.0,72.0,62.5,55.0,96,65,36,0.00,40.00,9,-4,16,0.02
2012-8-29,84.0,71.6,61.0,62.0,57.9,54.0,96,65,39,0.00,40.00,4,-6,12,0.00
2012-8-30,86.0,71.8,60.0,63.0,56.5,-99.9,99,64,34,0.00,40.00,5,-13,12,0.00
2012-8-31,94.0,76.3,60.0,66.0,59.1,-99.9,99,62,29,0.00,40.00,9,-5,14,0.00
2012-9-1,92.0,77.3,73.0,72.0,65.9,-99.9,95,71,49,0.00,40.00,7,-12,14,0.00
2012-9-2,81.0,74.1,69.0,72.0,69.9,68.0,98,87,66,0.00,40.00,4,1,7,0.00
2012-9-3,85.0,76.7,71.0,74.0,69.7,65.0,98,81,53,0.00,40.00,9,4,19,0.07
2012-9-4,85.0,76.5,72.0,77.0,71.7,69.0,97,86,61,0.00,40.00,9,4,16,1.63
2012-9-5,90.0,79.3,73.0,73.0,69.9,64.0,97,76,44,0.00,40.00,6,3,13,0.00
2012-9-6,90.0,76.9,69.0,71.0,69.3,66.0,97,80,47,0.00,40.00,9,3,14,0.00
2012-9-7,93.0,78.1,69.0,71.0,65.8,-99.9,98,71,39,0.00,40.00,13,-4,24,0.00
2012-9-8,82.0,70.3,60.0,69.0,64.5,54.0,98,83,57,0.00,40.00,9,-2,28,1.02
2012-9-9,79.0,62.3,55.0,58.0,47.5,-99.9,99,69,31,0.00,40.00,9,-4,19,0.00
2012-9-10,73.0,62.0,53.0,53.0,46.6,41.0,92,60,35,0.00,40.00,10,4,21,0.00
2012-9-11,77.0,60.6,47.0,52.0,43.0,-99.9,99,61,29,0.00,40.00,6,-12,10,0.00
2012-9-12,82.0,64.8,49.0,55.0,50.3,47.0,98,64,34,0.00,40.00,6,2,14,0.00
2012-9-13,83.0,67.6,53.0,57.0,52.9,47.0,98,63,35,0.00,40.00,6,2,14,0.00
2012-9-14,83.0,67.7,54.0,60.0,53.7,51.0,99,65,36,0.00,40.00,7,-4,14,0.00
2012-9-15,75.0,64.7,52.0,60.0,48.6,42.0,94,59,33,0.00,40.00,11,4,22,0.00
2012-9-16,76.0,61.2,51.0,56.0,46.8,-99.9,99,66,32,0.00,40.00,6,-5,11,0.00
2012-9-17,69.0,54.8,48.0,54.0,51.1,47.0,99,89,59,0.00,40.00,4,1,7,0.00
2012-9-18,69.0,69.0,69.0,69.0,69.0,69.0,99,99,99,0.00,40.00,7,7,19,1.25
2012-9-19,69.0,62.1,51.0,44.0,37.6,33.0,76,42,29,0.00,40.00,9,3,16,0.00
2012-9-20,73.0,58.5,44.0,53.0,46.6,44.0,99,70,38,0.00,40.00,9,3,17,0.00
2012-9-21,79.0,66.7,53.0,60.0,55.0,53.0,98,69,42,0.00,40.00,9,4,17,0.00
2012-9-22,83.0,69.9,60.0,62.0,56.1,43.0,93,65,37,0.00,40.00,10,5,26,0.00
2012-9-23,69.0,53.7,47.0,44.0,32.8,-99.9,99,57,33,0.00,40.00,9,3,22,0.00
2012-9-24,69.0,55.7,44.0,47.0,39.0,31.0,98,59,28,0.00,40.00,9,2,17,0.00
2012-9-25,73.0,59.4,42.0,48.0,43.2,39.0,97,59,33,0.00,40.00,8,-10,18,0.00
2012-9-26,78.0,66.2,59.0,60.0,55.3,-99.9,94,71,49,0.00,40.00,9,-3,20,0.00
2012-9-27,77.0,67.8,62.0,66.0,61.4,57.0,99,82,52,0.00,40.00,7,2,12,2.66
2012-9-28,76.0,65.4,57.0,67.0,56.1,46.0,99,75,43,0.00,40.00,6,3,14,0.07
2012-9-29,67.0,57.3,48.0,54.0,45.8,38.0,98,69,38,0.00,40.00,8,2,16,0.00
2012-9-30,68.0,55.2,50.0,53.0,49.7,44.0,99,84,43,0.00,40.00,12,3,22,0.00
2012-10-1,69.0,56.1,45.0,58.0,48.0,41.0,99,79,38,0.00,40.00,6,2,12,0.01
2012-10-2,64.0,60.8,58.0,64.0,60.1,56.0,99,97,92,0.00,40.00,6,-4,9,0.19
2012-10-3,76.0,66.8,62.0,69.0,64.1,61.0,99,92,64,0.00,40.00,4,2,7,0.00
2012-10-4,80.0,68.9,59.0,71.0,60.0,50.0,99,77,38,0.00,40.00,6,-27,12,0.02
2012-10-5,80.0,66.2,56.0,56.0,52.2,-99.9,99,65,39,0.00,40.00,7,3,16,0.00
2012-10-6,69.0,59.5,48.0,58.0,48.6,37.0,89,69,44,0.00,40.00,10,4,23,0.00
2012-10-7,51.0,47.5,42.0,47.0,42.0,38.0,98,82,66,0.00,40.00,5,2,10,0.00
2012-10-8,47.0,42.3,37.0,44.0,40.2,37.0,99,93,68,0.00,40.00,5,2,11,0.01
2012-10-9,64.0,50.8,42.0,47.0,43.3,40.0,99,79,45,0.00,40.00,4,-13,9,0.00
2012-10-10,68.0,53.3,45.0,51.0,43.1,36.0,99,73,39,0.00,40.00,9,2,26,0.00
2012-10-11,61.0,49.7,38.0,40.0,31.1,28.0,79,51,32,0.00,40.00,0,0,0,0.00
2012-10-12,58.0,48.5,40.0,38.0,32.9,24.0,84,57,36,0.00,40.00,11,1,29,0.00
2012-10-13,57.0,45.0,31.0,34.0,29.8,23.0,92,58,36,0.00,40.00,0,0,6,0.00
2012-10-14,71.0,58.4,49.0,53.0,45.3,34.0,73,63,50,0.00,40.00,0,0,0,0.00
2012-10-15,68.0,62.3,53.0,64.0,52.1,40.0,96,71,43,0.00,40.00,11,1,20,0.07
2012-10-16,61.0,53.2,46.0,43.0,38.3,35.0,75,58,41,0.00,40.00,10,4,21,0.00
2012-10-17,66.0,51.8,37.0,48.0,40.2,36.0,99,69,40,0.00,40.00,9,3,16,0.00
2012-10-18,66.0,57.7,49.0,58.0,50.6,47.0,98,79,58,0.00,40.00,16,6,27,0.19
2012-10-19,66.0,58.6,53.0,61.0,56.6,52.0,99,93,66,0.00,40.00,6,2,10,0.00
2012-10-20,64.0,53.2,45.0,53.0,39.5,32.0,99,64,34,0.00,40.00,9,2,26,0.00
2012-10-21,63.0,51.3,42.0,42.0,37.3,32.0,94,62,35,0.00,40.00,7,-12,17,0.00
2012-10-22,71.0,54.2,40.0,45.0,40.0,35.0,94,63,35,0.00,40.00,6,2,9,0.00
2012-10-23,73.0,58.9,50.0,57.0,51.3,45.0,97,78,49,0.00,40.00,6,2,11,0.14
2012-10-24,80.0,65.4,55.0,60.0,53.3,48.0,98,70,36,0.00,40.00,6,2,9,0.00
2012-10-25,68.0,61.8,55.0,60.0,55.6,51.0,98,81,62,0.00,40.00,5,2,12,0.00
2012-10-26,66.0,62.4,59.0,59.0,56.6,54.0,96,82,69,0.00,40.00,6,2,10,0.00
2012-10-27,67.0,61.2,57.0,57.0,54.0,48.0,90,78,54,0.00,40.00,6,3,12,0.00
2012-10-28,58.0,54.9,50.0,55.0,51.7,48.0,99,89,76,0.00,40.00,14,6,22,0.40
2012-10-29,50.0,47.2,43.0,49.0,46.7,41.0,99,98,89,0.00,40.00,20,10,49,6.85
2012-10-30,44.0,40.5,38.0,43.0,39.6,38.0,99,97,88,0.00,40.00,19,7,38,0.85
2012-10-31,46.0,41.9,38.0,39.0,34.7,31.0,99,78,56,0.00,40.00,8,4,18,0.00
2012-11-1,50.0,45.0,42.0,34.0,32.2,29.0,68,61,52,0.00,40.00,11,5,23,0.00
2012-11-2,49.0,42.9,37.0,34.0,29.5,27.0,78,60,44,0.00,40.00,12,6,27,0.00
2012-11-3,47.0,41.9,39.0,30.0,27.8,26.0,70,57,50,0.00,40.00,13,6,24,0.00
2012-11-4,49.0,41.1,36.0,28.0,26.1,24.0,69,56,40,0.00,40.00,9,4,18,0.00
2012-11-5,46.0,38.6,33.0,26.0,23.7,21.0,63,55,43,0.00,40.00,8,4,16,0.00
2012-11-6,45.0,35.7,27.0,26.0,22.2,20.0,85,59,42,0.00,40.00,7,3,11,0.00
2012-11-7,40.0,36.0,32.0,27.0,24.6,20.0,81,63,47,0.00,40.00,11,5,17,0.00
2012-11-8,51.0,41.4,33.0,27.0,19.6,16.0,63,43,26,0.00,40.00,12,5,24,0.00
2012-11-9,58.0,45.5,35.0,33.0,30.3,27.0,79,57,37,0.00,40.00,9,4,18,0.00
2012-11-10,63.0,47.6,37.0,38.0,34.5,30.0,88,63,37,0.00,40.00,6,2,9,0.00
2012-11-11,67.0,51.6,36.0,41.0,37.4,35.0,99,64,36,0.00,40.00,10,4,18,0.00
2012-11-12,65.0,59.8,48.0,58.0,49.5,37.0,96,70,45,0.00,40.00,17,9,26,0.04
2012-11-13,48.0,40.2,32.0,47.0,30.2,21.0,99,70,43,0.00,40.00,11,5,19,0.42
2012-11-14,45.0,37.6,32.0,27.0,23.1,-99.9,72,58,42,0.00,40.00,11,4,18,0.00
2012-11-15,45.0,36.1,28.0,32.0,28.5,25.0,95,75,53,0.00,40.00,5,2,8,0.00
2012-11-16,54.0,41.4,31.0,37.0,28.3,23.0,98,64,33,0.00,40.00,9,3,14,0.00
2012-11-17,55.0,41.6,31.0,33.0,28.1,26.0,87,62,35,0.00,40.00,6,3,12,0.00
2012-11-18,54.0,41.7,29.0,37.0,31.5,27.0,97,70,37,0.00,40.00,7,4,13,0.00
2012-11-19,49.0,41.4,35.0,38.0,35.6,34.0,97,81,58,0.00,40.00,6,3,11,0.00
2012-11-20,51.0,39.8,29.0,41.0,34.0,29.0,99,82,50,0.00,40.00,6,-12,7,0.00
2012-11-21,57.0,41.8,28.0,44.0,31.0,24.0,99,71,33,0.00,40.00,4,1,7,0.00
2012-11-22,59.0,41.7,28.0,34.0,29.8,27.0,96,66,33,0.00,40.00,6,2,9,0.00
2012-11-23,61.0,45.0,30.0,46.0,32.5,23.0,95,65,36,0.00,40.00,13,4,29,0.00
2012-11-24,39.0,35.5,33.0,24.0,19.7,18.0,56,52,48,0.00,40.00,13,8,34,0.00
2012-11-25,43.0,34.3,29.0,22.0,18.4,17.0,61,52,40,0.00,40.00,9,5,19,0.00
2012-11-26,52.0,38.9,28.0,28.0,24.0,18.0,70,56,39,0.00,40.00,7,3,12,0.00
2012-11-27,39.0,36.0,33.0,38.0,33.8,27.0,99,92,70,0.00,40.00,7,4,13,0.29
2012-11-28,47.0,37.0,31.0,32.0,20.3,14.0,86,53,31,0.00,40.00,11,3,21,0.00
2012-11-29,49.0,36.7,28.0,26.0,20.9,18.0,73,54,33,0.00,40.00,7,3,14,0.00
2012-11-30,53.0,39.1,28.0,29.0,24.9,20.0,82,59,37,0.00,40.00,6,2,9,0.00
2012-12-1,45.0,36.4,31.0,39.0,33.6,28.0,99,90,72,0.00,40.00,6,4,11,0.00
2012-12-2,55.0,42.8,32.0,46.0,38.6,32.0,99,87,54,0.00,40.00,6,2,10,0.00
2012-12-3,67.0,57.6,48.0,53.0,50.6,44.0,99,79,59,0.00,40.00,6,3,11,0.00
2012-12-4,71.0,61.1,51.0,54.0,50.0,47.0,98,69,44,0.00,40.00,10,4,18,0.00
2012-12-5,63.0,47.5,32.0,47.0,32.0,20.0,72,55,39,0.00,40.00,14,6,30,0.00
2012-12-6,42.0,33.6,25.0,25.0,20.1,-99.9,84,61,45,0.00,40.00,6,2,10,0.00
2012-12-7,39.0,37.1,35.0,39.0,34.4,22.0,99,90,58,0.00,40.00,6,3,11,0.08
2012-12-8,54.0,43.8,38.0,47.0,42.0,37.0,99,94,70,0.00,40.00,6,-5,11,0.00
2012-12-9,49.0,44.9,42.0,48.0,44.6,41.0,99,99,98,0.00,40.00,7,3,12,0.32
2012-12-10,52.0,46.7,42.0,52.0,46.3,37.0,99,99,79,0.00,40.00,11,2,26,0.00
2012-12-11,47.0,40.8,33.0,38.0,30.0,24.0,85,66,51,0.00,40.00,11,4,23,0.00
2012-12-12,40.0,34.6,31.0,29.0,25.2,23.0,83,69,53,0.00,40.00,6,2,12,0.00
2012-12-13,47.0,38.4,28.0,28.0,21.8,17.0,81,53,36,0.00,40.00,4,2,7,0.00
2012-12-14,53.0,36.8,24.0,27.0,24.0,22.0,96,64,33,0.00,40.00,6,3,11,0.00
2012-12-15,52.0,41.1,29.0,34.0,27.3,22.0,89,60,39,0.00,40.00,11,3,15,0.00
2012-12-16,47.0,44.8,41.0,42.0,39.1,30.0,95,81,54,0.00,40.00,11,-3,19,0.00
2012-12-17,50.0,45.6,41.0,49.0,44.2,41.0,99,95,81,0.00,40.00,6,2,13,0.24
2012-12-18,53.0,44.7,36.0,48.0,36.0,25.0,99,74,48,0.00,40.00,13,6,30,0.00
2012-12-19,50.0,42.3,35.0,35.0,31.0,26.0,77,65,53,0.00,40.00,11,4,21,0.00
2012-12-20,45.0,39.3,34.0,45.0,33.9,28.0,98,82,57,0.00,40.00,11,4,21,0.31
2012-12-21,45.0,37.5,34.0,45.0,26.1,20.0,99,65,53,0.00,40.00,14,8,30,0.64
2012-12-22,39.0,34.9,29.0,20.0,17.9,16.0,59,50,43,0.00,40.00,21,12,42,0.00
2012-12-23,48.0,35.3,26.0,22.0,17.2,15.0,67,49,29,0.00,40.00,9,4,18,0.00
2012-12-24,36.0,32.3,29.0,31.0,26.4,21.0,99,80,56,0.00,40.00,6,3,11,0.29
2012-12-25,40.0,34.2,31.0,38.0,32.8,29.0,99,94,81,0.00,40.00,6,2,11,0.00
2012-12-26,34.0,30.6,28.0,34.0,27.4,21.0,99,88,71,0.00,40.00,13,6,23,0.98
2012-12-27,38.0,34.0,32.0,34.0,25.2,20.0,99,71,50,0.00,40.00,18,9,36,0.00
2012-12-28,40.0,33.8,29.0,25.0,22.5,19.0,82,64,46,0.00,40.00,11,3,19,0.00
2012-12-29,36.0,32.4,28.0,36.0,29.2,22.0,99,89,62,0.00,40.00,17,5,36,0.13
2012-12-30,37.0,32.4,25.0,23.0,18.1,15.0,65,56,46,0.00,40.00,16,-5,34,0.00
2012-12-31,40.0,30.8,21.0,26.0,19.4,15.0,80,63,53,0.00,40.00,10,-3,17,0.00
2013-1-1,40.0,37.0,31.0,27.0,25.9,22.0,75,64,57,0.00,40.00,9,4,16,0.00